createdAt,value
2022-08-19T00:04:30.513Z,97.32
2022-08-19T00:09:32.422Z,97.22
2022-08-19T00:14:33.894Z,96.89
2022-08-19T00:19:38.591Z,96.99
2022-08-19T00:24:40.192Z,97.56
2022-08-19T00:29:41.685Z,98.60
2022-08-19T00:34:43.256Z,98.94
2022-08-19T00:39:44.681Z,98.86
2022-08-19T00:44:46.240Z,99.35
2022-08-19T00:49:54.789Z,98.98
2022-08-19T00:54:58.307Z,100.00
2022-08-19T01:00:03.100Z,100.00
2022-08-19T01:05:09.405Z,100.00
2022-08-19T01:10:20.456Z,100.00
2022-08-19T01:15:39.492Z,100.00
2022-08-19T01:20:42.348Z,100.00
2022-08-19T01:25:50.792Z,100.00
2022-08-19T01:30:53.075Z,100.00
2022-08-19T01:36:06.056Z,100.00
2022-08-19T01:41:11.137Z,100.00
2022-08-19T01:46:13.071Z,100.00
2022-08-19T01:51:15.127Z,100.00
2022-08-19T01:56:17.464Z,100.00
2022-08-19T02:01:19.080Z,100.00
2022-08-19T02:06:20.914Z,100.00
2022-08-19T02:11:32.750Z,100.00
2022-08-19T02:16:35.528Z,100.00
2022-08-19T02:21:37.199Z,100.00
2022-08-19T02:26:38.745Z,100.00
2022-08-19T02:31:41.132Z,100.00
2022-08-19T02:36:42.728Z,100.00
2022-08-19T02:41:44.331Z,100.00
2022-08-19T02:46:49.633Z,100.00
2022-08-19T02:51:53.086Z,100.00
2022-08-19T02:56:54.601Z,100.00
2022-08-19T03:01:56.546Z,100.00
2022-08-19T03:07:02.558Z,100.00
2022-08-19T03:12:12.458Z,100.00
2022-08-19T03:17:14.085Z,100.00
2022-08-19T03:22:15.533Z,100.00
2022-08-19T03:27:16.982Z,100.00
2022-08-19T03:32:32.431Z,100.00
2022-08-19T03:37:34.875Z,100.00
2022-08-19T03:42:48.609Z,100.00
2022-08-19T03:47:50.919Z,100.00
2022-08-19T03:52:53.124Z,100.00
2022-08-19T03:57:58.978Z,100.00
2022-08-19T04:03:01.207Z,100.00
2022-08-19T04:08:03.026Z,100.00
2022-08-19T04:13:08.126Z,100.00
2022-08-19T04:18:10.720Z,100.00
2022-08-19T04:23:14.171Z,100.00
2022-08-19T04:28:15.944Z,100.00
2022-08-19T04:33:26.795Z,100.00
2022-08-19T04:38:30.306Z,100.00
2022-08-19T04:43:35.903Z,100.00
2022-08-19T04:48:49.262Z,100.00
2022-08-19T04:53:51.613Z,100.00
2022-08-19T04:58:55.573Z,100.00
2022-08-19T05:03:58.539Z,100.00
2022-08-19T05:09:05.314Z,100.00
2022-08-19T05:14:08.334Z,100.00
2022-08-19T05:19:09.897Z,100.00
2022-08-19T05:24:11.819Z,100.00
2022-08-19T05:29:15.820Z,100.00
2022-08-19T05:34:20.432Z,100.00
2022-08-19T05:39:22.523Z,100.00
2022-08-19T05:44:26.084Z,100.00
2022-08-19T05:49:28.704Z,100.00
2022-08-19T05:54:30.245Z,100.00
2022-08-19T05:59:31.869Z,100.00
2022-08-19T06:04:34.282Z,100.00
2022-08-19T06:09:35.964Z,100.00
2022-08-19T06:14:41.815Z,100.00
2022-08-19T06:19:43.586Z,100.00
2022-08-19T06:24:45.048Z,100.00
2022-08-19T06:29:46.975Z,100.00
2022-08-19T06:34:48.433Z,100.00
2022-08-19T06:39:50.960Z,100.00
2022-08-19T06:44:53.284Z,100.00
2022-08-19T06:50:01.273Z,100.00
2022-08-19T06:55:06.094Z,100.00
2022-08-19T07:00:12.847Z,100.00
2022-08-19T07:05:14.617Z,98.72
2022-08-19T07:10:16.292Z,98.94
2022-08-19T07:15:18.898Z,98.14
2022-08-19T07:20:20.766Z,97.50
2022-08-19T07:25:32.083Z,95.83
2022-08-19T07:30:38.051Z,95.69
2022-08-19T07:35:39.979Z,96.37
2022-08-19T07:40:41.598Z,93.40
2022-08-19T07:45:43.361Z,92.50
2022-08-19T07:50:44.964Z,91.03
2022-08-19T07:55:46.511Z,90.74
2022-08-19T08:00:50.528Z,91.21
2022-08-19T08:05:52.287Z,91.24
2022-08-19T08:10:56.773Z,90.74
2022-08-19T08:15:58.629Z,91.97
2022-08-19T08:21:00.674Z,91.85
2022-08-19T08:26:02.119Z,90.81
2022-08-19T08:31:03.537Z,89.62
2022-08-19T08:36:12.641Z,89.86
2022-08-19T08:41:14.028Z,86.54
2022-08-19T08:46:32.333Z,84.16
2022-08-19T08:51:47.614Z,78.68
2022-08-19T08:56:52.478Z,76.67
2022-08-19T09:01:55.187Z,73.56
2022-08-19T09:07:22.870Z,69.76
2022-08-19T09:12:53.514Z,70.67
2022-08-19T09:17:55.032Z,67.92
2022-08-19T09:22:56.614Z,66.48
2022-08-19T09:28:02.867Z,66.53
2022-08-19T09:33:07.428Z,63.30
2022-08-19T09:38:08.870Z,62.86
2022-08-19T09:43:13.229Z,61.39
2022-08-19T09:48:19.098Z,59.99
2022-08-19T09:53:25.401Z,56.56
2022-08-19T09:58:27.125Z,55.38
2022-08-19T10:03:30.471Z,53.93
2022-08-19T10:08:37.855Z,53.46
2022-08-19T10:13:39.277Z,51.52
2022-08-19T10:18:40.949Z,48.31
2022-08-19T10:23:48.115Z,47.75
2022-08-19T10:28:50.940Z,48.32
2022-08-19T10:33:53.491Z,45.71
2022-08-19T10:38:58.463Z,51.16
2022-08-19T10:44:04.446Z,47.81
2022-08-19T10:49:06.794Z,52.50
2022-08-19T10:54:12.388Z,52.72
2022-08-19T10:59:16.251Z,52.54
2022-08-19T11:04:19.331Z,53.16
2022-08-19T11:09:24.117Z,54.66
2022-08-19T11:14:25.984Z,52.18
2022-08-19T11:19:28.356Z,50.53
2022-08-19T11:24:30.849Z,47.07
2022-08-19T11:29:33.756Z,47.79
2022-08-19T11:34:36.113Z,49.99
2022-08-19T11:39:38.605Z,49.34
2022-08-19T11:44:41.421Z,50.94
2022-08-19T11:49:42.859Z,49.00
2022-08-19T11:54:44.248Z,48.35
2022-08-19T11:59:51.020Z,49.17
2022-08-19T12:04:52.453Z,44.88
2022-08-19T12:09:53.870Z,43.71
2022-08-19T12:14:56.523Z,42.87
2022-08-19T12:19:58.209Z,42.82
2022-08-19T12:24:59.622Z,44.30
2022-08-19T12:30:01.104Z,43.13
2022-08-19T12:35:02.930Z,41.54
2022-08-19T12:40:04.924Z,41.50
2022-08-19T12:45:06.992Z,41.25
2022-08-19T12:50:11.239Z,42.25
2022-08-19T12:55:12.669Z,42.69
2022-08-19T13:00:17.308Z,42.84
2022-08-19T13:05:22.545Z,41.15
2022-08-19T13:10:32.510Z,39.69
2022-08-19T13:15:36.217Z,39.61
2022-08-19T13:20:38.835Z,40.03
2022-08-19T13:25:40.293Z,39.20
2022-08-19T13:30:41.837Z,37.72
2022-08-19T13:35:45.319Z,35.77
2022-08-19T13:40:47.665Z,37.18
2022-08-19T13:45:50.026Z,37.62
2022-08-19T13:50:51.480Z,35.92
2022-08-19T13:55:52.989Z,39.16
2022-08-19T14:00:54.504Z,37.68
2022-08-19T14:05:56.003Z,36.68
2022-08-19T14:10:57.507Z,37.05
2022-08-19T14:15:58.999Z,38.32
2022-08-19T14:21:01.270Z,39.55
2022-08-19T14:26:11.926Z,39.44
2022-08-19T14:31:15.973Z,41.07
2022-08-19T14:36:18.692Z,40.66
2022-08-19T14:41:23.477Z,40.75
2022-08-19T14:46:28.202Z,39.53
2022-08-19T14:51:31.749Z,38.19
2022-08-19T14:56:33.269Z,41.02
2022-08-19T15:01:34.872Z,40.17
2022-08-19T15:06:37.050Z,38.02
2022-08-19T15:11:38.855Z,38.54
2022-08-19T15:16:40.343Z,38.76
2022-08-19T15:21:41.986Z,38.48
2022-08-19T15:26:44.700Z,37.69
2022-08-19T15:31:46.144Z,39.17
2022-08-19T15:36:50.853Z,37.48
2022-08-19T15:41:52.362Z,39.33
2022-08-19T15:46:54.536Z,38.38
2022-08-19T15:51:56.031Z,38.33
2022-08-19T15:56:58.474Z,39.56
2022-08-19T16:02:00.167Z,40.52
2022-08-19T16:07:02.518Z,42.32
2022-08-19T16:12:05.763Z,42.58
2022-08-19T16:17:07.203Z,42.61
2022-08-19T16:22:08.890Z,44.83
2022-08-19T16:27:10.346Z,46.98
2022-08-19T16:32:12.208Z,45.09
2022-08-19T16:37:14.242Z,45.60
2022-08-19T16:42:15.680Z,46.48
2022-08-19T16:47:17.095Z,49.08
2022-08-19T16:52:19.214Z,48.48
2022-08-19T16:57:20.900Z,50.25
2022-08-19T17:02:22.717Z,53.62
2022-08-19T17:07:24.119Z,54.17
2022-08-19T17:12:30.268Z,53.87
2022-08-19T17:17:32.955Z,56.33
2022-08-19T17:22:35.411Z,56.87
2022-08-19T17:27:37.457Z,57.61
2022-08-19T17:32:38.937Z,57.23
2022-08-19T17:37:40.567Z,60.69
2022-08-19T17:42:42.137Z,58.82
2022-08-19T17:47:43.622Z,58.95
2022-08-19T17:52:45.102Z,59.90
2022-08-19T17:57:46.924Z,61.61
2022-08-19T18:02:51.913Z,60.68
2022-08-19T18:07:53.881Z,61.44
2022-08-19T18:12:55.827Z,61.64
2022-08-19T18:17:57.574Z,62.08
2022-08-19T18:22:58.982Z,62.85
2022-08-19T18:28:20.364Z,64.22
2022-08-19T18:33:21.902Z,64.16
2022-08-19T18:38:23.393Z,64.41
2022-08-19T18:43:24.801Z,65.42
2022-08-19T18:48:28.232Z,66.22
2022-08-19T18:53:33.815Z,66.90
2022-08-19T18:58:37.183Z,67.01
2022-08-19T19:03:41.660Z,67.70
2022-08-19T19:08:43.491Z,67.31
2022-08-19T19:13:47.278Z,68.04
2022-08-19T19:18:49.908Z,69.67
2022-08-19T19:23:53.566Z,70.51
2022-08-19T19:28:55.395Z,70.87
2022-08-19T19:33:57.160Z,73.07
2022-08-19T19:38:58.951Z,75.63
2022-08-19T19:44:30.165Z,77.04
2022-08-19T19:49:21.969Z,78.04
2022-08-19T19:54:26.608Z,78.54
2022-08-19T19:59:28.134Z,79.39
2022-08-19T20:04:29.736Z,79.83
2022-08-19T20:09:49.705Z,78.94
2022-08-19T20:14:52.735Z,80.19
2022-08-19T20:19:54.271Z,83.77
2022-08-19T20:24:55.763Z,85.68
2022-08-19T20:29:57.607Z,86.72
2022-08-19T20:34:59.935Z,86.28
2022-08-19T20:40:01.451Z,87.37
2022-08-19T20:45:04.497Z,88.15
2022-08-19T20:50:24.381Z,89.20
2022-08-19T20:55:28.814Z,91.01
2022-08-19T21:00:53.514Z,92.84
2022-08-19T21:05:59.126Z,96.08
2022-08-19T21:11:02.174Z,95.88
2022-08-19T21:16:04.049Z,98.17
2022-08-19T21:21:10.612Z,97.80
2022-08-19T21:26:12.046Z,98.47
2022-08-19T21:31:13.502Z,98.94
2022-08-19T21:36:15.016Z,100.00
2022-08-19T21:41:16.464Z,99.60
2022-08-19T21:46:18.047Z,99.36
2022-08-19T21:51:19.574Z,99.19
2022-08-19T21:56:22.669Z,100.00
2022-08-19T22:01:24.188Z,99.83
2022-08-19T22:06:25.960Z,99.90
2022-08-19T22:11:27.887Z,99.49
2022-08-19T22:16:29.351Z,100.00
2022-08-19T22:21:39.755Z,99.97
2022-08-19T22:26:42.085Z,100.00
2022-08-19T22:31:44.813Z,100.00
2022-08-19T22:36:46.333Z,100.00
2022-08-19T22:41:47.770Z,100.00
2022-08-19T22:46:49.629Z,100.00
2022-08-19T22:51:51.078Z,100.00
2022-08-19T22:56:52.719Z,100.00
2022-08-19T23:01:54.296Z,100.00
2022-08-19T23:06:55.990Z,100.00
2022-08-19T23:11:57.415Z,100.00
2022-08-19T23:16:59.422Z,100.00
2022-08-19T23:22:01.314Z,100.00
2022-08-19T23:27:02.747Z,100.00
2022-08-19T23:32:04.198Z,100.00
2022-08-19T23:37:05.946Z,100.00
2022-08-19T23:42:11.248Z,100.00
2022-08-19T23:47:13.360Z,100.00
2022-08-19T23:52:14.861Z,100.00
2022-08-19T23:57:16.370Z,100.00
